Station Historical Data
Daily Summary for April 12, 2017 Units:  Both    English   Metric
« Previous Day
Next Day »
Daily Weekly Monthly Yearly Custom
  High: Low: Average:
Temperature: 47.8 °F /  8.8 °C 38.3 °F /  3.5 °C 44.4 °F /  6.9 °C
Dew Point: 41.8 °F /  5.4 °C 33.3 °F /  0.7 °C 37.3 °F /  2.9 °C
Humidity: 87% 70% 76%
Wind Speed: 17.0mph /  27.4km/h - 5.4mph /  8.7km/h
Wind Gust: 21.0mph /  33.8km/h - -
Wind- - WSW
Pressure: 30.44 in /  1030.7 hPa 30.15 in /  1020.9 hPa -
Precipitation: 0.00 in /  0 mm    
Historical Graphs
 
 
Tabular Data for April 12, 2017
Time Temperature Dew Point Pressure Wind Wind Speed Wind Gust Humidity Rainfall Rate (Hourly)
00:04 44.6 °F /  7 °C 41.0 °F /  5 °C 30.15in /  1020.9hPa SW 3.0mph /  4.8km/h 7.0mph /  11.3km/h 87% 0.00in /  0mm
00:09 44.5 °F /  6.9 °C 40.6 °F /  4.8 °C 30.15in /  1020.9hPa SW 4.0mph /  6.4km/h 7.0mph /  11.3km/h 86% 0.00in /  0mm
00:14 44.5 °F /  6.9 °C 40.9 °F /  4.9 °C 30.16in /  1021.2hPa SW 4.0mph /  6.4km/h 8.0mph /  12.9km/h 87% 0.00in /  0mm
00:19 44.5 °F /  6.9 °C 40.6 °F /  4.8 °C 30.15in /  1020.9hPa SW 3.0mph /  4.8km/h 8.0mph /  12.9km/h 86% 0.00in /  0mm
00:24 44.5 °F /  6.9 °C 40.9 °F /  4.9 °C 30.16in /  1021.2hPa SW 4.0mph /  6.4km/h 8.0mph /  12.9km/h 87% 0.00in /  0mm
00:29 44.6 °F /  7 °C 41.0 °F /  5 °C 30.16in /  1021.2hPa SW 3.0mph /  4.8km/h 7.0mph /  11.3km/h 87% 0.00in /  0mm
00:34 44.5 °F /  6.9 °C 40.9 °F /  4.9 °C 30.16in /  1021.2hPa SW 6.0mph /  9.7km/h 8.0mph /  12.9km/h 87% 0.00in /  0mm
00:39 44.5 °F /  6.9 °C 40.9 °F /  4.9 °C 30.16in /  1021.2hPa SW 2.0mph /  3.2km/h 6.0mph /  9.7km/h 87% 0.00in /  0mm
00:44 44.5 °F /  6.9 °C 40.9 °F /  4.9 °C 30.16in /  1021.2hPa SW 3.0mph /  4.8km/h 6.0mph /  9.7km/h 87% 0.00in /  0mm
00:49 44.4 °F /  6.9 °C 40.8 °F /  4.9 °C 30.16in /  1021.2hPa SW 2.0mph /  3.2km/h 5.0mph /  8km/h 87% 0.00in /  0mm
00:54 44.4 °F /  6.9 °C 40.8 °F /  4.9 °C 30.16in /  1021.2hPa SW 2.0mph /  3.2km/h 6.0mph /  9.7km/h 87% 0.00in /  0mm
00:59 44.4 °F /  6.9 °C 40.8 °F /  4.9 °C 30.16in /  1021.2hPa SW 3.0mph /  4.8km/h 6.0mph /  9.7km/h 87% 0.00in /  0mm
01:04 44.5 °F /  6.9 °C 40.9 °F /  4.9 °C 30.17in /  1021.6hPa SW 3.0mph /  4.8km/h 6.0mph /  9.7km/h 87% 0.00in /  0mm
01:09 44.6 °F /  7 °C 41.0 °F /  5 °C 30.16in /  1021.2hPa SW 1.0mph /  1.6km/h 5.0mph /  8km/h 87% 0.00in /  0mm
01:14 44.7 °F /  7.1 °C 41.1 °F /  5.1 °C 30.16in /  1021.2hPa Calm   2.0mph /  3.2km/h 87% 0.00in /  0mm
01:19 44.8 °F /  7.1 °C 41.2 °F /  5.1 °C 30.16in /  1021.2hPa Calm     87% 0.00in /  0mm
01:24 44.9 °F /  7.2 °C 41.3 °F /  5.2 °C 30.16in /  1021.2hPa Calm   3.0mph /  4.8km/h 87% 0.00in /  0mm
01:29 45.0 °F /  7.2 °C 41.4 °F /  5.2 °C 30.16in /  1021.2hPa SW 1.0mph /  1.6km/h 3.0mph /  4.8km/h 87% 0.00in /  0mm
01:34 45.1 °F /  7.3 °C 41.5 °F /  5.3 °C 30.16in /  1021.2hPa WSW 1.0mph /  1.6km/h 3.0mph /  4.8km/h 87% 0.00in /  0mm
01:39 45.3 °F /  7.4 °C 41.7 °F /  5.4 °C 30.17in /  1021.6hPa WSW 1.0mph /  1.6km/h 4.0mph /  6.4km/h 87% 0.00in /  0mm
01:44 45.4 °F /  7.4 °C 41.8 °F /  5.4 °C 30.17in /  1021.6hPa SSW 3.0mph /  4.8km/h 3.0mph /  4.8km/h 87% 0.00in /  0mm
01:49 45.3 °F /  7.4 °C 41.7 °F /  5.4 °C 30.16in /  1021.2hPa SSW 2.0mph /  3.2km/h 4.0mph /  6.4km/h 87% 0.00in /  0mm
01:54 45.3 °F /  7.4 °C 41.7 °F /  5.4 °C 30.16in /  1021.2hPa SSW 2.0mph /  3.2km/h 4.0mph /  6.4km/h 87% 0.00in /  0mm
01:59 45.3 °F /  7.4 °C 41.7 °F /  5.4 °C 30.17in /  1021.6hPa SSW 2.0mph /  3.2km/h 5.0mph /  8km/h 87% 0.00in /  0mm
02:04 45.5 °F /  7.5 °C 41.6 °F /  5.3 °C 30.17in /  1021.6hPa SW 4.0mph /  6.4km/h 6.0mph /  9.7km/h 86% 0.00in /  0mm
02:09 45.7 °F /  7.6 °C 41.8 °F /  5.4 °C 30.17in /  1021.6hPa South 4.0mph /  6.4km/h 6.0mph /  9.7km/h 86% 0.00in /  0mm
02:14 46.0 °F /  7.8 °C 41.7 °F /  5.4 °C 30.17in /  1021.6hPa SW 4.0mph /  6.4km/h 6.0mph /  9.7km/h 85% 0.00in /  0mm
02:19 46.3 °F /  7.9 °C 41.4 °F /  5.2 °C 30.17in /  1021.6hPa SW 3.0mph /  4.8km/h 7.0mph /  11.3km/h 83% 0.00in /  0mm
02:24 46.6 °F /  8.1 °C 41.4 °F /  5.2 °C 30.17in /  1021.6hPa WSW 3.0mph /  4.8km/h 7.0mph /  11.3km/h 82% 0.00in /  0mm
02:29 46.8 °F /  8.2 °C 41.0 °F /  5 °C 30.17in /  1021.6hPa WSW 3.0mph /  4.8km/h 5.0mph /  8km/h 80% 0.00in /  0mm
02:34 46.9 °F /  8.3 °C 41.1 °F /  5.1 °C 30.17in /  1021.6hPa WSW 3.0mph /  4.8km/h 5.0mph /  8km/h 80% 0.00in /  0mm
02:39 47.0 °F /  8.3 °C 41.1 °F /  5.1 °C 30.17in /  1021.6hPa SW 3.0mph /  4.8km/h 4.0mph /  6.4km/h 80% 0.00in /  0mm
02:44 47.0 °F /  8.3 °C 41.1 °F /  5.1 °C 30.17in /  1021.6hPa WSW 1.0mph /  1.6km/h 4.0mph /  6.4km/h 80% 0.00in /  0mm
02:49 47.1 °F /  8.4 °C 41.2 °F /  5.1 °C 30.17in /  1021.6hPa WSW 4.0mph /  6.4km/h 6.0mph /  9.7km/h 80% 0.00in /  0mm
02:54 47.1 °F /  8.4 °C 40.6 °F /  4.8 °C 30.17in /  1021.6hPa WSW 3.0mph /  4.8km/h 9.0mph /  14.5km/h 78% 0.00in /  0mm
02:59 47.2 °F /  8.4 °C 40.0 °F /  4.4 °C 30.17in /  1021.6hPa WSW 5.0mph /  8km/h 9.0mph /  14.5km/h 76% 0.00in /  0mm
03:04 47.4 °F /  8.6 °C 39.9 °F /  4.4 °C 30.17in /  1021.6hPa NNW 3.0mph /  4.8km/h 10.0mph /  16.1km/h 75% 0.00in /  0mm
03:09 47.6 °F /  8.7 °C 39.7 °F /  4.3 °C 30.17in /  1021.6hPa West 5.0mph /  8km/h 12.0mph /  19.3km/h 74% 0.00in /  0mm
03:14 47.7 °F /  8.7 °C 39.8 °F /  4.3 °C 30.17in /  1021.6hPa West 5.0mph /  8km/h 12.0mph /  19.3km/h 74% 0.00in /  0mm
03:19 47.8 °F /  8.8 °C 39.9 °F /  4.4 °C 30.18in /  1021.9hPa WSW 4.0mph /  6.4km/h 8.0mph /  12.9km/h 74% 0.00in /  0mm
03:24 47.8 °F /  8.8 °C 39.9 °F /  4.4 °C 30.17in /  1021.6hPa SW 4.0mph /  6.4km/h 8.0mph /  12.9km/h 74% 0.00in /  0mm
03:29 47.5 °F /  8.6 °C 40.0 °F /  4.4 °C 30.17in /  1021.6hPa SW 3.0mph /  4.8km/h 8.0mph /  12.9km/h 75% 0.00in /  0mm
03:34 47.3 °F /  8.5 °C 39.8 °F /  4.3 °C 30.17in /  1021.6hPa West 3.0mph /  4.8km/h 7.0mph /  11.3km/h 75% 0.00in /  0mm
03:39 47.0 °F /  8.3 °C 39.8 °F /  4.3 °C 30.17in /  1021.6hPa WSW 4.0mph /  6.4km/h 7.0mph /  11.3km/h 76% 0.00in /  0mm
03:44 46.7 °F /  8.2 °C 39.5 °F /  4.2 °C 30.17in /  1021.6hPa WSW 4.0mph /  6.4km/h 8.0mph /  12.9km/h 76% 0.00in /  0mm
03:49 46.6 °F /  8.1 °C 39.4 °F /  4.1 °C 30.17in /  1021.6hPa WSW 4.0mph /  6.4km/h 8.0mph /  12.9km/h 76% 0.00in /  0mm
03:54 46.5 °F /  8.1 °C 39.3 °F /  4.1 °C 30.17in /  1021.6hPa WSW 4.0mph /  6.4km/h 8.0mph /  12.9km/h 76% 0.00in /  0mm
03:59 46.4 °F /  8 °C 39.6 °F /  4.2 °C 30.17in /  1021.6hPa SW 3.0mph /  4.8km/h 6.0mph /  9.7km/h 77% 0.00in /  0mm
04:04 46.2 °F /  7.9 °C 39.4 °F /  4.1 °C 30.17in /  1021.6hPa WSW 3.0mph /  4.8km/h 6.0mph /  9.7km/h 77% 0.00in /  0mm
04:09 46.2 °F /  7.9 °C 39.4 °F /  4.1 °C 30.17in /  1021.6hPa WSW 3.0mph /  4.8km/h 6.0mph /  9.7km/h 77% 0.00in /  0mm
04:14 46.1 °F /  7.8 °C 39.3 °F /  4.1 °C 30.17in /  1021.6hPa SW 3.0mph /  4.8km/h 6.0mph /  9.7km/h 77% 0.00in /  0mm
04:19 46.0 °F /  7.8 °C 39.2 °F /  4 °C 30.18in /  1021.9hPa WSW 4.0mph /  6.4km/h 7.0mph /  11.3km/h 77% 0.00in /  0mm
04:24 45.9 °F /  7.7 °C 39.4 °F /  4.1 °C 30.18in /  1021.9hPa WSW 4.0mph /  6.4km/h 6.0mph /  9.7km/h 78% 0.00in /  0mm
04:29 45.8 °F /  7.7 °C 39.0 °F /  3.9 °C 30.18in /  1021.9hPa WSW 8.0mph /  12.9km/h 9.0mph /  14.5km/h 77% 0.00in /  0mm
04:34 45.6 °F /  7.6 °C 38.8 °F /  3.8 °C 30.18in /  1021.9hPa WSW 4.0mph /  6.4km/h 9.0mph /  14.5km/h 77% 0.00in /  0mm
04:39 45.6 °F /  7.6 °C 39.1 °F /  3.9 °C 30.18in /  1021.9hPa WSW 5.0mph /  8km/h 7.0mph /  11.3km/h 78% 0.00in /  0mm
04:44 45.5 °F /  7.5 °C 39.0 °F /  3.9 °C 30.18in /  1021.9hPa WSW 3.0mph /  4.8km/h 8.0mph /  12.9km/h 78% 0.00in /  0mm
04:49 45.6 °F /  7.6 °C 39.1 °F /  3.9 °C 30.18in /  1021.9hPa WSW 3.0mph /  4.8km/h 8.0mph /  12.9km/h 78% 0.00in /  0mm
04:54 45.5 °F /  7.5 °C 39.0 °F /  3.9 °C 30.18in /  1021.9hPa WSW 4.0mph /  6.4km/h 7.0mph /  11.3km/h 78% 0.00in /  0mm
04:59 45.5 °F /  7.5 °C 39.0 °F /  3.9 °C 30.18in /  1021.9hPa WSW 4.0mph /  6.4km/h 7.0mph /  11.3km/h 78% 0.00in /  0mm
05:04 45.4 °F /  7.4 °C 38.9 °F /  3.8 °C 30.18in /  1021.9hPa WSW 3.0mph /  4.8km/h 7.0mph /  11.3km/h 78% 0.00in /  0mm
05:09 45.4 °F /  7.4 °C 38.9 °F /  3.8 °C 30.18in /  1021.9hPa WSW 3.0mph /  4.8km/h 6.0mph /  9.7km/h 78% 0.00in /  0mm
05:14 45.4 °F /  7.4 °C 38.9 °F /  3.8 °C 30.18in /  1021.9hPa West 1.0mph /  1.6km/h 6.0mph /  9.7km/h 78% 0.00in /  0mm
05:19 45.4 °F /  7.4 °C 38.9 °F /  3.8 °C 30.18in /  1021.9hPa West 3.0mph /  4.8km/h 6.0mph /  9.7km/h 78% 0.00in /  0mm
05:24 45.3 °F /  7.4 °C 38.5 °F /  3.6 °C 30.18in /  1021.9hPa WSW 3.0mph /  4.8km/h 7.0mph /  11.3km/h 77% 0.00in /  0mm
05:29 45.4 °F /  7.4 °C 38.6 °F /  3.7 °C 30.19in /  1022.2hPa West 4.0mph /  6.4km/h 6.0mph /  9.7km/h 77% 0.00in /  0mm
05:34 45.4 °F /  7.4 °C 38.3 °F /  3.5 °C 30.19in /  1022.2hPa West 4.0mph /  6.4km/h 10.0mph /  16.1km/h 76% 0.00in /  0mm
05:39 45.5 °F /  7.5 °C 38.0 °F /  3.3 °C 30.19in /  1022.2hPa West 5.0mph /  8km/h 12.0mph /  19.3km/h 75% 0.00in /  0mm
05:44 45.5 °F /  7.5 °C 38.0 °F /  3.3 °C 30.20in /  1022.6hPa WNW 3.0mph /  4.8km/h 12.0mph /  19.3km/h 75% 0.00in /  0mm
05:49 45.5 °F /  7.5 °C 37.7 °F /  3.2 °C 30.20in /  1022.6hPa West 6.0mph /  9.7km/h 14.0mph /  22.5km/h 74% 0.00in /  0mm
05:54 45.4 °F /  7.4 °C 37.6 °F /  3.1 °C 30.20in /  1022.6hPa West 6.0mph /  9.7km/h 14.0mph /  22.5km/h 74% 0.00in /  0mm
05:59 45.4 °F /  7.4 °C 37.2 °F /  2.9 °C 30.20in /  1022.6hPa West 6.0mph /  9.7km/h 12.0mph /  19.3km/h 73% 0.00in /  0mm
06:04 45.3 °F /  7.4 °C 37.2 °F /  2.9 °C 30.20in /  1022.6hPa West 11.0mph /  17.7km/h 14.0mph /  22.5km/h 73% 0.00in /  0mm
06:09 45.2 °F /  7.3 °C 37.1 °F /  2.8 °C 30.21in /  1022.9hPa West 10.0mph /  16.1km/h 14.0mph /  22.5km/h 73% 0.00in /  0mm
06:14 45.2 °F /  7.3 °C 36.7 °F /  2.6 °C 30.21in /  1022.9hPa WNW 2.0mph /  3.2km/h 13.0mph /  20.9km/h 72% 0.00in /  0mm
06:19 45.1 °F /  7.3 °C 36.6 °F /  2.6 °C 30.21in /  1022.9hPa West 7.0mph /  11.3km/h 13.0mph /  20.9km/h 72% 0.00in /  0mm
06:24 45.0 °F /  7.2 °C 36.5 °F /  2.5 °C 30.22in /  1023.2hPa WNW 5.0mph /  8km/h 11.0mph /  17.7km/h 72% 0.00in /  0mm
06:29 44.9 °F /  7.2 °C 36.4 °F /  2.4 °C 30.22in /  1023.2hPa WSW 8.0mph /  12.9km/h 15.0mph /  24.1km/h 72% 0.00in /  0mm
06:34 44.9 °F /  7.2 °C 36.4 °F /  2.4 °C 30.23in /  1023.6hPa West 2.0mph /  3.2km/h 9.0mph /  14.5km/h 72% 0.00in /  0mm
06:39 44.8 °F /  7.1 °C 36.3 °F /  2.4 °C 30.23in /  1023.6hPa West 7.0mph /  11.3km/h 11.0mph /  17.7km/h 72% 0.00in /  0mm
06:44 44.9 °F /  7.2 °C 36.8 °F /  2.7 °C 30.23in /  1023.6hPa WNW 4.0mph /  6.4km/h 8.0mph /  12.9km/h 73% 0.00in /  0mm
06:49 44.8 °F /  7.1 °C 36.7 °F /  2.6 °C 30.23in /  1023.6hPa West 4.0mph /  6.4km/h 8.0mph /  12.9km/h 73% 0.00in /  0mm
06:54 44.8 °F /  7.1 °C 36.7 °F /  2.6 °C 30.23in /  1023.6hPa WNW 4.0mph /  6.4km/h 8.0mph /  12.9km/h 73% 0.00in /  0mm
06:59 44.7 °F /  7.1 °C 36.6 °F /  2.6 °C 30.24in /  1023.9hPa WNW 5.0mph /  8km/h 14.0mph /  22.5km/h 73% 0.00in /  0mm
07:04 44.6 °F /  7 °C 36.5 °F /  2.5 °C 30.24in /  1023.9hPa WNW 6.0mph /  9.7km/h 14.0mph /  22.5km/h 73% 0.00in /  0mm
07:09 44.5 °F /  6.9 °C 36.4 °F /  2.4 °C 30.24in /  1023.9hPa WSW 5.0mph /  8km/h 13.0mph /  20.9km/h 73% 0.00in /  0mm
07:14 44.5 °F /  6.9 °C 36.4 °F /  2.4 °C 30.24in /  1023.9hPa West 6.0mph /  9.7km/h 14.0mph /  22.5km/h 73% 0.00in /  0mm
07:19 44.5 °F /  6.9 °C 36.4 °F /  2.4 °C 30.24in /  1023.9hPa West 6.0mph /  9.7km/h 14.0mph /  22.5km/h 73% 0.00in /  0mm
07:24 44.4 °F /  6.9 °C 36.3 °F /  2.4 °C 30.24in /  1023.9hPa West 5.0mph /  8km/h 13.0mph /  20.9km/h 73% 0.00in /  0mm
07:29 44.4 °F /  6.9 °C 36.3 °F /  2.4 °C 30.25in /  1024.3hPa WNW 4.0mph /  6.4km/h 10.0mph /  16.1km/h 73% 0.00in /  0mm
07:34 44.3 °F /  6.8 °C 36.2 °F /  2.3 °C 30.25in /  1024.3hPa WNW 8.0mph /  12.9km/h 11.0mph /  17.7km/h 73% 0.00in /  0mm
07:39 44.3 °F /  6.8 °C 36.2 °F /  2.3 °C 30.25in /  1024.3hPa WSW 8.0mph /  12.9km/h 12.0mph /  19.3km/h 73% 0.00in /  0mm
07:44 44.3 °F /  6.8 °C 36.2 °F /  2.3 °C 30.25in /  1024.3hPa WNW 8.0mph /  12.9km/h 11.0mph /  17.7km/h 73% 0.00in /  0mm
07:49 44.3 °F /  6.8 °C 36.2 °F /  2.3 °C 30.26in /  1024.6hPa West 5.0mph /  8km/h 11.0mph /  17.7km/h 73% 0.00in /  0mm
07:54 44.3 °F /  6.8 °C 36.2 °F /  2.3 °C 30.26in /  1024.6hPa West 4.0mph /  6.4km/h 10.0mph /  16.1km/h 73% 0.00in /  0mm
07:59 44.3 °F /  6.8 °C 36.2 °F /  2.3 °C 30.26in /  1024.6hPa West 4.0mph /  6.4km/h 12.0mph /  19.3km/h 73% 0.00in /  0mm
08:04 44.3 °F /  6.8 °C 36.2 °F /  2.3 °C 30.26in /  1024.6hPa West 5.0mph /  8km/h 12.0mph /  19.3km/h 73% 0.00in /  0mm
08:09 44.3 °F /  6.8 °C 36.2 °F /  2.3 °C 30.26in /  1024.6hPa West 6.0mph /  9.7km/h 11.0mph /  17.7km/h 73% 0.00in /  0mm
08:14 44.4 °F /  6.9 °C 36.3 °F /  2.4 °C 30.26in /  1024.6hPa West 6.0mph /  9.7km/h 10.0mph /  16.1km/h 73% 0.00in /  0mm
08:19 44.4 °F /  6.9 °C 36.3 °F /  2.4 °C 30.27in /  1024.9hPa WNW 5.0mph /  8km/h 10.0mph /  16.1km/h 73% 0.00in /  0mm
08:24 44.5 °F /  6.9 °C 36.4 °F /  2.4 °C 30.27in /  1024.9hPa WNW 3.0mph /  4.8km/h 10.0mph /  16.1km/h 73% 0.00in /  0mm
08:29 44.6 °F /  7 °C 36.5 °F /  2.5 °C 30.26in /  1024.6hPa West 7.0mph /  11.3km/h 10.0mph /  16.1km/h 73% 0.00in /  0mm
08:34 44.6 °F /  7 °C 36.5 °F /  2.5 °C 30.27in /  1024.9hPa WNW 5.0mph /  8km/h 11.0mph /  17.7km/h 73% 0.00in /  0mm
08:39 44.6 °F /  7 °C 36.5 °F /  2.5 °C 30.27in /  1024.9hPa WNW 8.0mph /  12.9km/h 10.0mph /  16.1km/h 73% 0.00in /  0mm
08:44 44.5 °F /  6.9 °C 36.4 °F /  2.4 °C 30.27in /  1024.9hPa WNW 6.0mph /  9.7km/h 9.0mph /  14.5km/h 73% 0.00in /  0mm
08:49 44.5 °F /  6.9 °C 36.4 °F /  2.4 °C 30.27in /  1024.9hPa West 5.0mph /  8km/h 9.0mph /  14.5km/h 73% 0.00in /  0mm
08:54 44.6 °F /  7 °C 36.5 °F /  2.5 °C 30.27in /  1024.9hPa West 5.0mph /  8km/h 10.0mph /  16.1km/h 73% 0.00in /  0mm
08:59 44.7 °F /  7.1 °C 36.6 °F /  2.6 °C 30.27in /  1024.9hPa West 4.0mph /  6.4km/h 10.0mph /  16.1km/h 73% 0.00in /  0mm
09:04 44.8 °F /  7.1 °C 36.7 °F /  2.6 °C 30.27in /  1024.9hPa West 4.0mph /  6.4km/h 8.0mph /  12.9km/h 73% 0.00in /  0mm
09:09 44.9 °F /  7.2 °C 36.8 °F /  2.7 °C 30.27in /  1024.9hPa West 5.0mph /  8km/h 9.0mph /  14.5km/h 73% 0.00in /  0mm
09:14 45.0 °F /  7.2 °C 37.2 °F /  2.9 °C 30.27in /  1024.9hPa West 7.0mph /  11.3km/h 10.0mph /  16.1km/h 74% 0.00in /  0mm
09:19 45.1 °F /  7.3 °C 37.0 °F /  2.8 °C 30.28in /  1025.3hPa West 3.0mph /  4.8km/h 9.0mph /  14.5km/h 73% 0.00in /  0mm
09:24 45.0 °F /  7.2 °C 36.9 °F /  2.7 °C 30.28in /  1025.3hPa West 5.0mph /  8km/h 11.0mph /  17.7km/h 73% 0.00in /  0mm
09:29 45.0 °F /  7.2 °C 36.9 °F /  2.7 °C 30.28in /  1025.3hPa West 5.0mph /  8km/h 11.0mph /  17.7km/h 73% 0.00in /  0mm
09:34 45.0 °F /  7.2 °C 36.9 °F /  2.7 °C 30.28in /  1025.3hPa WNW 6.0mph /  9.7km/h 8.0mph /  12.9km/h 73% 0.00in /  0mm
09:39 45.2 °F /  7.3 °C 37.1 °F /  2.8 °C 30.29in /  1025.6hPa WNW 7.0mph /  11.3km/h 9.0mph /  14.5km/h 73% 0.00in /  0mm
09:44 44.9 °F /  7.2 °C 36.4 °F /  2.4 °C 30.29in /  1025.6hPa NW 4.0mph /  6.4km/h 10.0mph /  16.1km/h 72% 0.00in /  0mm
09:49 44.8 °F /  7.1 °C 36.7 °F /  2.6 °C 30.29in /  1025.6hPa West 6.0mph /  9.7km/h 11.0mph /  17.7km/h 73% 0.00in /  0mm
09:54 44.9 °F /  7.2 °C 36.8 °F /  2.7 °C 30.29in /  1025.6hPa West 6.0mph /  9.7km/h 11.0mph /  17.7km/h 73% 0.00in /  0mm
09:59 45.0 °F /  7.2 °C 36.5 °F /  2.5 °C 30.29in /  1025.6hPa West 6.0mph /  9.7km/h 12.0mph /  19.3km/h 72% 0.00in /  0mm
10:04 45.0 °F /  7.2 °C 36.5 °F /  2.5 °C 30.29in /  1025.6hPa West 6.0mph /  9.7km/h 12.0mph /  19.3km/h 72% 0.00in /  0mm
10:09 45.0 °F /  7.2 °C 36.5 °F /  2.5 °C 30.29in /  1025.6hPa WSW 3.0mph /  4.8km/h 13.0mph /  20.9km/h 72% 0.00in /  0mm
10:14 45.2 °F /  7.3 °C 36.7 °F /  2.6 °C 30.29in /  1025.6hPa WNW 4.0mph /  6.4km/h 9.0mph /  14.5km/h 72% 0.00in /  0mm
10:19 45.2 °F /  7.3 °C 36.4 °F /  2.4 °C 30.29in /  1025.6hPa WNW 6.0mph /  9.7km/h 10.0mph /  16.1km/h 71% 0.00in /  0mm
10:24 45.4 °F /  7.4 °C 36.5 °F /  2.5 °C 30.29in /  1025.6hPa West 5.0mph /  8km/h 12.0mph /  19.3km/h 71% 0.00in /  0mm
10:29 45.3 °F /  7.4 °C 36.1 °F /  2.3 °C 30.29in /  1025.6hPa West 6.0mph /  9.7km/h 12.0mph /  19.3km/h 70% 0.00in /  0mm
10:34 45.4 °F /  7.4 °C 36.5 °F /  2.5 °C 30.29in /  1025.6hPa West 6.0mph /  9.7km/h 10.0mph /  16.1km/h 71% 0.00in /  0mm
10:39 45.4 °F /  7.4 °C 36.2 °F /  2.3 °C 30.30in /  1026hPa WNW 11.0mph /  17.7km/h 11.0mph /  17.7km/h 70% 0.00in /  0mm
10:44 45.3 °F /  7.4 °C 36.4 °F /  2.4 °C 30.30in /  1026hPa West 5.0mph /  8km/h 12.0mph /  19.3km/h 71% 0.00in /  0mm
10:49 45.4 °F /  7.4 °C 36.5 °F /  2.5 °C 30.30in /  1026hPa WSW 3.0mph /  4.8km/h 10.0mph /  16.1km/h 71% 0.00in /  0mm
10:54 45.4 °F /  7.4 °C 36.9 °F /  2.7 °C 30.30in /  1026hPa WSW 5.0mph /  8km/h 11.0mph /  17.7km/h 72% 0.00in /  0mm
10:59 45.3 °F /  7.4 °C 36.8 °F /  2.7 °C 30.30in /  1026hPa WSW 6.0mph /  9.7km/h 11.0mph /  17.7km/h 72% 0.00in /  0mm
11:04 45.2 °F /  7.3 °C 36.7 °F /  2.6 °C 30.30in /  1026hPa WSW 6.0mph /  9.7km/h 11.0mph /  17.7km/h 72% 0.00in /  0mm
11:09 45.4 °F /  7.4 °C 36.9 °F /  2.7 °C 30.30in /  1026hPa WSW 6.0mph /  9.7km/h 11.0mph /  17.7km/h 72% 0.00in /  0mm
11:14 45.3 °F /  7.4 °C 36.8 °F /  2.7 °C 30.30in /  1026hPa SW 4.0mph /  6.4km/h 11.0mph /  17.7km/h 72% 0.00in /  0mm
11:19 45.4 °F /  7.4 °C 36.9 °F /  2.7 °C 30.30in /  1026hPa WSW 5.0mph /  8km/h 10.0mph /  16.1km/h 72% 0.00in /  0mm
11:24 45.2 °F /  7.3 °C 36.4 °F /  2.4 °C 30.30in /  1026hPa WSW 7.0mph /  11.3km/h 13.0mph /  20.9km/h 71% 0.00in /  0mm
11:29 45.8 °F /  7.7 °C 36.9 °F /  2.7 °C 30.31in /  1026.3hPa WSW 6.0mph /  9.7km/h 13.0mph /  20.9km/h 71% 0.00in /  0mm
11:34 45.2 °F /  7.3 °C 36.7 °F /  2.6 °C 30.31in /  1026.3hPa WSW 6.0mph /  9.7km/h 13.0mph /  20.9km/h 72% 0.00in /  0mm
11:39 45.1 °F /  7.3 °C 37.0 °F /  2.8 °C 30.31in /  1026.3hPa WSW 5.0mph /  8km/h 9.0mph /  14.5km/h 73% 0.00in /  0mm
11:44 45.5 °F /  7.5 °C 37.3 °F /  2.9 °C 30.31in /  1026.3hPa SW 7.0mph /  11.3km/h 12.0mph /  19.3km/h 73% 0.00in /  0mm
11:49 45.3 °F /  7.4 °C 36.8 °F /  2.7 °C 30.32in /  1026.6hPa WNW 8.0mph /  12.9km/h 13.0mph /  20.9km/h 72% 0.00in /  0mm
11:54 44.5 °F /  6.9 °C 36.7 °F /  2.6 °C 30.32in /  1026.6hPa WSW 7.0mph /  11.3km/h 14.0mph /  22.5km/h 74% 0.00in /  0mm
11:59 44.2 °F /  6.8 °C 36.4 °F /  2.4 °C 30.32in /  1026.6hPa WSW 8.0mph /  12.9km/h 14.0mph /  22.5km/h 74% 0.00in /  0mm
12:04 44.1 °F /  6.7 °C 36.7 °F /  2.6 °C 30.32in /  1026.6hPa WSW 7.0mph /  11.3km/h 15.0mph /  24.1km/h 75% 0.00in /  0mm
12:09 44.2 °F /  6.8 °C 36.8 °F /  2.7 °C 30.32in /  1026.6hPa WSW 6.0mph /  9.7km/h 16.0mph /  25.7km/h 75% 0.00in /  0mm
12:14 44.3 °F /  6.8 °C 36.5 °F /  2.5 °C 30.32in /  1026.6hPa SW 7.0mph /  11.3km/h 13.0mph /  20.9km/h 74% 0.00in /  0mm
12:19 44.0 °F /  6.7 °C 35.9 °F /  2.2 °C 30.32in /  1026.6hPa WSW 7.0mph /  11.3km/h 16.0mph /  25.7km/h 73% 0.00in /  0mm
12:24 43.9 °F /  6.6 °C 35.8 °F /  2.1 °C 30.32in /  1026.6hPa WSW 9.0mph /  14.5km/h 16.0mph /  25.7km/h 73% 0.00in /  0mm
12:29 44.0 °F /  6.7 °C 35.9 °F /  2.2 °C 30.33in /  1027hPa WSW 8.0mph /  12.9km/h 14.0mph /  22.5km/h 73% 0.00in /  0mm
12:34 43.8 °F /  6.6 °C 36.0 °F /  2.2 °C 30.33in /  1027hPa WSW 8.0mph /  12.9km/h 15.0mph /  24.1km/h 74% 0.00in /  0mm
12:39 43.9 °F /  6.6 °C 36.1 °F /  2.3 °C 30.33in /  1027hPa West 8.0mph /  12.9km/h 16.0mph /  25.7km/h 74% 0.00in /  0mm
12:44 44.0 °F /  6.7 °C 36.2 °F /  2.3 °C 30.33in /  1027hPa WSW 4.0mph /  6.4km/h 12.0mph /  19.3km/h 74% 0.00in /  0mm
12:49 44.0 °F /  6.7 °C 36.2 °F /  2.3 °C 30.33in /  1027hPa West 10.0mph /  16.1km/h 18.0mph /  29km/h 74% 0.00in /  0mm
12:54 44.0 °F /  6.7 °C 36.6 °F /  2.6 °C 30.33in /  1027hPa WSW 9.0mph /  14.5km/h 19.0mph /  30.6km/h 75% 0.00in /  0mm
12:59 44.0 °F /  6.7 °C 36.6 °F /  2.6 °C 30.33in /  1027hPa WSW 8.0mph /  12.9km/h 19.0mph /  30.6km/h 75% 0.00in /  0mm
13:04 44.0 °F /  6.7 °C 36.6 °F /  2.6 °C 30.33in /  1027hPa NW 6.0mph /  9.7km/h 16.0mph /  25.7km/h 75% 0.00in /  0mm
13:09 44.3 °F /  6.8 °C 36.9 °F /  2.7 °C 30.33in /  1027hPa SSW 7.0mph /  11.3km/h 12.0mph /  19.3km/h 75% 0.00in /  0mm
13:14 44.6 °F /  7 °C 36.8 °F /  2.7 °C 30.33in /  1027hPa WSW 11.0mph /  17.7km/h 16.0mph /  25.7km/h 74% 0.00in /  0mm
13:19 44.5 °F /  6.9 °C 36.7 °F /  2.6 °C 30.33in /  1027hPa WSW 11.0mph /  17.7km/h 18.0mph /  29km/h 74% 0.00in /  0mm
13:24 44.6 °F /  7 °C 36.5 °F /  2.5 °C 30.33in /  1027hPa WSW 9.0mph /  14.5km/h 18.0mph /  29km/h 73% 0.00in /  0mm
13:29 45.0 °F /  7.2 °C 37.2 °F /  2.9 °C 30.33in /  1027hPa WSW 9.0mph /  14.5km/h 15.0mph /  24.1km/h 74% 0.00in /  0mm
13:34 45.3 °F /  7.4 °C 37.2 °F /  2.9 °C 30.33in /  1027hPa WSW 7.0mph /  11.3km/h 14.0mph /  22.5km/h 73% 0.00in /  0mm
13:39 45.0 °F /  7.2 °C 36.9 °F /  2.7 °C 30.33in /  1027hPa SW 11.0mph /  17.7km/h 17.0mph /  27.4km/h 73% 0.00in /  0mm
13:44 44.6 °F /  7 °C 36.5 °F /  2.5 °C 30.33in /  1027hPa West 8.0mph /  12.9km/h 13.0mph /  20.9km/h 73% 0.00in /  0mm
13:49 44.6 °F /  7 °C 36.5 °F /  2.5 °C 30.33in /  1027hPa SW 5.0mph /  8km/h 13.0mph /  20.9km/h 73% 0.00in /  0mm
13:54 44.3 °F /  6.8 °C 36.2 °F /  2.3 °C 30.33in /  1027hPa SW 8.0mph /  12.9km/h 16.0mph /  25.7km/h 73% 0.00in /  0mm
13:59 44.3 °F /  6.8 °C 36.5 °F /  2.5 °C 30.33in /  1027hPa SW 9.0mph /  14.5km/h 16.0mph /  25.7km/h 74% 0.00in /  0mm
14:04 44.4 °F /  6.9 °C 36.3 °F /  2.4 °C 30.33in /  1027hPa SW 9.0mph /  14.5km/h 17.0mph /  27.4km/h 73% 0.00in /  0mm
14:09 44.6 °F /  7 °C 36.8 °F /  2.7 °C 30.33in /  1027hPa SE 5.0mph /  8km/h 18.0mph /  29km/h 74% 0.00in /  0mm
14:14 45.0 °F /  7.2 °C 36.9 °F /  2.7 °C 30.33in /  1027hPa West 4.0mph /  6.4km/h 16.0mph /  25.7km/h 73% 0.00in /  0mm
14:19 45.2 °F /  7.3 °C 36.7 °F /  2.6 °C 30.33in /  1027hPa West 5.0mph /  8km/h 16.0mph /  25.7km/h 72% 0.00in /  0mm
14:24 45.2 °F /  7.3 °C 36.7 °F /  2.6 °C 30.34in /  1027.3hPa West 9.0mph /  14.5km/h 20.0mph /  32.2km/h 72% 0.00in /  0mm
14:29 45.7 °F /  7.6 °C 37.5 °F /  3.1 °C 30.34in /  1027.3hPa WSW 10.0mph /  16.1km/h 20.0mph /  32.2km/h 73% 0.00in /  0mm
14:34 46.7 °F /  8.2 °C 37.8 °F /  3.2 °C 30.34in /  1027.3hPa WSW 10.0mph /  16.1km/h 18.0mph /  29km/h 71% 0.00in /  0mm
14:39 46.2 °F /  7.9 °C 37.3 °F /  2.9 °C 30.34in /  1027.3hPa WSW 8.0mph /  12.9km/h 18.0mph /  29km/h 71% 0.00in /  0mm
14:44 45.7 °F /  7.6 °C 36.8 °F /  2.7 °C 30.33in /  1027hPa WSW 8.0mph /  12.9km/h 18.0mph /  29km/h 71% 0.00in /  0mm
14:49 45.4 °F /  7.4 °C 36.9 °F /  2.7 °C 30.33in /  1027hPa WSW 12.0mph /  19.3km/h 15.0mph /  24.1km/h 72% 0.00in /  0mm
14:54 45.8 °F /  7.7 °C 37.6 °F /  3.1 °C 30.33in /  1027hPa SSW 5.0mph /  8km/h 16.0mph /  25.7km/h 73% 0.00in /  0mm
14:59 46.8 °F /  8.2 °C 37.5 °F /  3.1 °C 30.33in /  1027hPa West 17.0mph /  27.4km/h 17.0mph /  27.4km/h 70% 0.00in /  0mm
15:04 46.7 °F /  8.2 °C 37.4 °F /  3 °C 30.33in /  1027hPa SW 11.0mph /  17.7km/h 19.0mph /  30.6km/h 70% 0.00in /  0mm
15:09 46.2 °F /  7.9 °C 37.0 °F /  2.8 °C 30.33in /  1027hPa West 10.0mph /  16.1km/h 15.0mph /  24.1km/h 70% 0.00in /  0mm
15:14 45.7 °F /  7.6 °C 36.8 °F /  2.7 °C 30.33in /  1027hPa WSW 6.0mph /  9.7km/h 20.0mph /  32.2km/h 71% 0.00in /  0mm
15:19 46.2 °F /  7.9 °C 37.3 °F /  2.9 °C 30.33in /  1027hPa WSW 12.0mph /  19.3km/h 16.0mph /  25.7km/h 71% 0.00in /  0mm
15:24 46.7 °F /  8.2 °C 37.8 °F /  3.2 °C 30.33in /  1027hPa West 7.0mph /  11.3km/h 16.0mph /  25.7km/h 71% 0.00in /  0mm
15:29 46.0 °F /  7.8 °C 36.8 °F /  2.7 °C 30.34in /  1027.3hPa WSW 9.0mph /  14.5km/h 17.0mph /  27.4km/h 70% 0.00in /  0mm
15:34 45.4 °F /  7.4 °C 36.9 °F /  2.7 °C 30.34in /  1027.3hPa WSW 8.0mph /  12.9km/h 17.0mph /  27.4km/h 72% 0.00in /  0mm
15:39 45.0 °F /  7.2 °C 36.5 °F /  2.5 °C 30.34in /  1027.3hPa WSW 9.0mph /  14.5km/h 15.0mph /  24.1km/h 72% 0.00in /  0mm
15:44 44.6 °F /  7 °C 36.5 °F /  2.5 °C 30.34in /  1027.3hPa WSW 10.0mph /  16.1km/h 19.0mph /  30.6km/h 73% 0.00in /  0mm
15:49 44.4 °F /  6.9 °C 36.6 °F /  2.6 °C 30.34in /  1027.3hPa SW 9.0mph /  14.5km/h 19.0mph /  30.6km/h 74% 0.00in /  0mm
15:54 44.6 °F /  7 °C 36.8 °F /  2.7 °C 30.34in /  1027.3hPa WSW 8.0mph /  12.9km/h 19.0mph /  30.6km/h 74% 0.00in /  0mm
16:04 44.6 °F /  7 °C 36.5 °F /  2.5 °C 30.34in /  1027.3hPa WSW 10.0mph /  16.1km/h 13.0mph /  20.9km/h 73% 0.00in /  0mm
16:09 44.5 °F /  6.9 °C 36.4 °F /  2.4 °C 30.34in /  1027.3hPa West 6.0mph /  9.7km/h 19.0mph /  30.6km/h 73% 0.00in /  0mm
16:14 44.4 °F /  6.9 °C 36.6 °F /  2.6 °C 30.34in /  1027.3hPa WSW 10.0mph /  16.1km/h 13.0mph /  20.9km/h 74% 0.00in /  0mm
16:19 44.3 °F /  6.8 °C 36.5 °F /  2.5 °C 30.35in /  1027.7hPa SW 6.0mph /  9.7km/h 13.0mph /  20.9km/h 74% 0.00in /  0mm
16:24 44.2 °F /  6.8 °C 36.4 °F /  2.4 °C 30.34in /  1027.3hPa SW 9.0mph /  14.5km/h 18.0mph /  29km/h 74% 0.00in /  0mm
16:29 44.2 °F /  6.8 °C 36.4 °F /  2.4 °C 30.34in /  1027.3hPa WSW 8.0mph /  12.9km/h 18.0mph /  29km/h 74% 0.00in /  0mm
16:34 44.2 °F /  6.8 °C 36.4 °F /  2.4 °C 30.34in /  1027.3hPa WSW 8.0mph /  12.9km/h 21.0mph /  33.8km/h 74% 0.00in /  0mm
16:39 44.5 °F /  6.9 °C 36.7 °F /  2.6 °C 30.34in /  1027.3hPa WSW 7.0mph /  11.3km/h 21.0mph /  33.8km/h 74% 0.00in /  0mm
16:44 44.4 °F /  6.9 °C 36.3 °F /  2.4 °C 30.35in /  1027.7hPa WNW 6.0mph /  9.7km/h 17.0mph /  27.4km/h 73% 0.00in /  0mm
16:49 44.6 °F /  7 °C 36.5 °F /  2.5 °C 30.35in /  1027.7hPa West 8.0mph /  12.9km/h 15.0mph /  24.1km/h 73% 0.00in /  0mm
16:54 44.8 °F /  7.1 °C 36.7 °F /  2.6 °C 30.35in /  1027.7hPa SW 8.0mph /  12.9km/h 16.0mph /  25.7km/h 73% 0.00in /  0mm
16:59 44.7 °F /  7.1 °C 36.6 °F /  2.6 °C 30.35in /  1027.7hPa WSW 8.0mph /  12.9km/h 18.0mph /  29km/h 73% 0.00in /  0mm
17:04 44.6 °F /  7 °C 36.1 °F /  2.3 °C 30.35in /  1027.7hPa WSW 9.0mph /  14.5km/h 18.0mph /  29km/h 72% 0.00in /  0mm
17:09 44.9 °F /  7.2 °C 36.4 °F /  2.4 °C 30.35in /  1027.7hPa WSW 9.0mph /  14.5km/h 18.0mph /  29km/h 72% 0.00in /  0mm
17:14 44.7 °F /  7.1 °C 36.2 °F /  2.3 °C 30.35in /  1027.7hPa WSW 8.0mph /  12.9km/h 17.0mph /  27.4km/h 72% 0.00in /  0mm
17:19 44.6 °F /  7 °C 36.5 °F /  2.5 °C 30.35in /  1027.7hPa WSW 6.0mph /  9.7km/h 11.0mph /  17.7km/h 73% 0.00in /  0mm
17:24 44.4 °F /  6.9 °C 35.9 °F /  2.2 °C 30.35in /  1027.7hPa West 9.0mph /  14.5km/h 14.0mph /  22.5km/h 72% 0.00in /  0mm
17:29 44.2 °F /  6.8 °C 36.1 °F /  2.3 °C 30.35in /  1027.7hPa WSW 8.0mph /  12.9km/h 16.0mph /  25.7km/h 73% 0.00in /  0mm
17:34 44.2 °F /  6.8 °C 36.4 °F /  2.4 °C 30.35in /  1027.7hPa WSW 8.0mph /  12.9km/h 16.0mph /  25.7km/h 74% 0.00in /  0mm
17:39 44.2 °F /  6.8 °C 36.1 °F /  2.3 °C 30.35in /  1027.7hPa West 7.0mph /  11.3km/h 18.0mph /  29km/h 73% 0.00in /  0mm
17:44 44.2 °F /  6.8 °C 36.4 °F /  2.4 °C 30.35in /  1027.7hPa West 5.0mph /  8km/h 17.0mph /  27.4km/h 74% 0.00in /  0mm
17:49 44.3 °F /  6.8 °C 36.5 °F /  2.5 °C 30.35in /  1027.7hPa South 8.0mph /  12.9km/h 16.0mph /  25.7km/h 74% 0.00in /  0mm
17:54 44.3 °F /  6.8 °C 36.5 °F /  2.5 °C 30.35in /  1027.7hPa SSW 7.0mph /  11.3km/h 16.0mph /  25.7km/h 74% 0.00in /  0mm
17:59 44.4 °F /  6.9 °C 36.6 °F /  2.6 °C 30.35in /  1027.7hPa West 5.0mph /  8km/h 13.0mph /  20.9km/h 74% 0.00in /  0mm
18:04 44.5 °F /  6.9 °C 36.4 °F /  2.4 °C 30.35in /  1027.7hPa WSW 7.0mph /  11.3km/h 15.0mph /  24.1km/h 73% 0.00in /  0mm
18:09 44.2 °F /  6.8 °C 36.4 °F /  2.4 °C 30.35in /  1027.7hPa WSW 8.0mph /  12.9km/h 16.0mph /  25.7km/h 74% 0.00in /  0mm
18:14 44.1 °F /  6.7 °C 36.3 °F /  2.4 °C 30.35in /  1027.7hPa WSW 9.0mph /  14.5km/h 17.0mph /  27.4km/h 74% 0.00in /  0mm
18:19 44.2 °F /  6.8 °C 36.8 °F /  2.7 °C 30.36in /  1028hPa WSW 8.0mph /  12.9km/h 17.0mph /  27.4km/h 75% 0.00in /  0mm
18:24 44.1 °F /  6.7 °C 36.3 °F /  2.4 °C 30.36in /  1028hPa WSW 7.0mph /  11.3km/h 14.0mph /  22.5km/h 74% 0.00in /  0mm
18:29 43.7 °F /  6.5 °C 36.3 °F /  2.4 °C 30.36in /  1028hPa West 5.0mph /  8km/h 16.0mph /  25.7km/h 75% 0.00in /  0mm
18:34 43.7 °F /  6.5 °C 36.3 °F /  2.4 °C 30.36in /  1028hPa WSW 8.0mph /  12.9km/h 16.0mph /  25.7km/h 75% 0.00in /  0mm
18:39 43.8 °F /  6.6 °C 36.4 °F /  2.4 °C 30.36in /  1028hPa SW 5.0mph /  8km/h 11.0mph /  17.7km/h 75% 0.00in /  0mm
18:44 43.8 °F /  6.6 °C 36.4 °F /  2.4 °C 30.36in /  1028hPa West 16.0mph /  25.7km/h 16.0mph /  25.7km/h 75% 0.00in /  0mm
18:49 43.6 °F /  6.4 °C 36.5 °F /  2.5 °C 30.36in /  1028hPa WSW 6.0mph /  9.7km/h 18.0mph /  29km/h 76% 0.00in /  0mm
18:54 43.4 °F /  6.3 °C 36.3 °F /  2.4 °C 30.37in /  1028.3hPa West 11.0mph /  17.7km/h 17.0mph /  27.4km/h 76% 0.00in /  0mm
18:59 43.3 °F /  6.3 °C 36.2 °F /  2.3 °C 30.37in /  1028.3hPa WSW 7.0mph /  11.3km/h 16.0mph /  25.7km/h 76% 0.00in /  0mm
19:04 43.2 °F /  6.2 °C 36.5 °F /  2.5 °C 30.37in /  1028.3hPa WSW 7.0mph /  11.3km/h 16.0mph /  25.7km/h 77% 0.00in /  0mm
19:09 43.1 °F /  6.2 °C 36.4 °F /  2.4 °C 30.37in /  1028.3hPa WSW 7.0mph /  11.3km/h 13.0mph /  20.9km/h 77% 0.00in /  0mm
19:14 42.9 °F /  6.1 °C 36.2 °F /  2.3 °C 30.37in /  1028.3hPa WSW 7.0mph /  11.3km/h 13.0mph /  20.9km/h 77% 0.00in /  0mm
19:19 43.0 °F /  6.1 °C 36.3 °F /  2.4 °C 30.37in /  1028.3hPa WSW 7.0mph /  11.3km/h 12.0mph /  19.3km/h 77% 0.00in /  0mm
19:24 43.0 °F /  6.1 °C 36.3 °F /  2.4 °C 30.37in /  1028.3hPa WSW 6.0mph /  9.7km/h 10.0mph /  16.1km/h 77% 0.00in /  0mm
19:29 42.9 °F /  6.1 °C 36.2 °F /  2.3 °C 30.38in /  1028.7hPa SW 10.0mph /  16.1km/h 15.0mph /  24.1km/h 77% 0.00in /  0mm
19:34 42.9 °F /  6.1 °C 36.5 °F /  2.5 °C 30.38in /  1028.7hPa West 6.0mph /  9.7km/h 17.0mph /  27.4km/h 78% 0.00in /  0mm
19:39 42.8 °F /  6 °C 36.4 °F /  2.4 °C 30.38in /  1028.7hPa WSW 8.0mph /  12.9km/h 17.0mph /  27.4km/h 78% 0.00in /  0mm
19:44 42.8 °F /  6 °C 36.4 °F /  2.4 °C 30.38in /  1028.7hPa West 5.0mph /  8km/h 13.0mph /  20.9km/h 78% 0.00in /  0mm
19:49 42.9 °F /  6.1 °C 36.5 °F /  2.5 °C 30.38in /  1028.7hPa WSW 4.0mph /  6.4km/h 13.0mph /  20.9km/h 78% 0.00in /  0mm
19:54 42.9 °F /  6.1 °C 36.5 °F /  2.5 °C 30.38in /  1028.7hPa SW 7.0mph /  11.3km/h 11.0mph /  17.7km/h 78% 0.00in /  0mm
19:59 43.0 °F /  6.1 °C 36.6 °F /  2.6 °C 30.39in /  1029hPa WSW 3.0mph /  4.8km/h 11.0mph /  17.7km/h 78% 0.00in /  0mm
20:04 43.1 °F /  6.2 °C 36.4 °F /  2.4 °C 30.39in /  1029hPa WSW 6.0mph /  9.7km/h 11.0mph /  17.7km/h 77% 0.00in /  0mm
20:09 43.1 °F /  6.2 °C 36.4 °F /  2.4 °C 30.39in /  1029hPa WSW 6.0mph /  9.7km/h 11.0mph /  17.7km/h 77% 0.00in /  0mm
20:14 43.1 °F /  6.2 °C 36.4 °F /  2.4 °C 30.39in /  1029hPa WSW 6.0mph /  9.7km/h 12.0mph /  19.3km/h 77% 0.00in /  0mm
20:19 43.1 °F /  6.2 °C 36.4 °F /  2.4 °C 30.40in /  1029.3hPa WSW 6.0mph /  9.7km/h 16.0mph /  25.7km/h 77% 0.00in /  0mm
20:24 43.0 °F /  6.1 °C 36.6 °F /  2.6 °C 30.40in /  1029.3hPa SSW 8.0mph /  12.9km/h 12.0mph /  19.3km/h 78% 0.00in /  0mm
20:29 42.9 °F /  6.1 °C 36.5 °F /  2.5 °C 30.40in /  1029.3hPa WSW 4.0mph /  6.4km/h 12.0mph /  19.3km/h 78% 0.00in /  0mm
20:34 42.7 °F /  5.9 °C 36.3 °F /  2.4 °C 30.40in /  1029.3hPa WSW 5.0mph /  8km/h 12.0mph /  19.3km/h 78% 0.00in /  0mm
20:39 42.5 °F /  5.8 °C 36.1 °F /  2.3 °C 30.40in /  1029.3hPa WSW 5.0mph /  8km/h 9.0mph /  14.5km/h 78% 0.00in /  0mm
20:44 42.5 °F /  5.8 °C 36.1 °F /  2.3 °C 30.41in /  1029.7hPa West 5.0mph /  8km/h 9.0mph /  14.5km/h 78% 0.00in /  0mm
20:49 42.5 °F /  5.8 °C 36.1 °F /  2.3 °C 30.41in /  1029.7hPa WSW 4.0mph /  6.4km/h 10.0mph /  16.1km/h 78% 0.00in /  0mm
20:54 42.4 °F /  5.8 °C 36.0 °F /  2.2 °C 30.41in /  1029.7hPa WSW 4.0mph /  6.4km/h 8.0mph /  12.9km/h 78% 0.00in /  0mm
20:59 42.3 °F /  5.7 °C 35.9 °F /  2.2 °C 30.41in /  1029.7hPa WSW 5.0mph /  8km/h 9.0mph /  14.5km/h 78% 0.00in /  0mm
21:04 42.2 °F /  5.7 °C 35.8 °F /  2.1 °C 30.42in /  1030hPa WSW 5.0mph /  8km/h 9.0mph /  14.5km/h 78% 0.00in /  0mm
21:09 42.2 °F /  5.7 °C 35.8 °F /  2.1 °C 30.43in /  1030.4hPa WSW 4.0mph /  6.4km/h 8.0mph /  12.9km/h 78% 0.00in /  0mm
21:14 42.0 °F /  5.6 °C 36.0 °F /  2.2 °C 30.42in /  1030hPa WSW 5.0mph /  8km/h 9.0mph /  14.5km/h 79% 0.00in /  0mm
21:19 42.0 °F /  5.6 °C 36.0 °F /  2.2 °C 30.43in /  1030.4hPa WSW 4.0mph /  6.4km/h 9.0mph /  14.5km/h 79% 0.00in /  0mm
21:24 42.0 °F /  5.6 °C 36.0 °F /  2.2 °C 30.43in /  1030.4hPa WSW 4.0mph /  6.4km/h 6.0mph /  9.7km/h 79% 0.00in /  0mm
21:29 42.0 °F /  5.6 °C 36.0 °F /  2.2 °C 30.43in /  1030.4hPa WSW 5.0mph /  8km/h 7.0mph /  11.3km/h 79% 0.00in /  0mm
21:34 41.9 °F /  5.5 °C 35.9 °F /  2.2 °C 30.43in /  1030.4hPa WSW 4.0mph /  6.4km/h 7.0mph /  11.3km/h 79% 0.00in /  0mm
21:39 41.9 °F /  5.5 °C 35.9 °F /  2.2 °C 30.43in /  1030.4hPa WSW 4.0mph /  6.4km/h 8.0mph /  12.9km/h 79% 0.00in /  0mm
21:44 41.8 °F /  5.4 °C 35.8 °F /  2.1 °C 30.43in /  1030.4hPa WSW 4.0mph /  6.4km/h 9.0mph /  14.5km/h 79% 0.00in /  0mm
21:49 41.8 °F /  5.4 °C 35.8 °F /  2.1 °C 30.43in /  1030.4hPa WSW 2.0mph /  3.2km/h 7.0mph /  11.3km/h 79% 0.00in /  0mm
21:54 41.6 °F /  5.3 °C 35.9 °F /  2.2 °C 30.43in /  1030.4hPa WSW 3.0mph /  4.8km/h 7.0mph /  11.3km/h 80% 0.00in /  0mm
21:59 41.6 °F /  5.3 °C 35.9 °F /  2.2 °C 30.43in /  1030.4hPa West 2.0mph /  3.2km/h 6.0mph /  9.7km/h 80% 0.00in /  0mm
22:04 41.3 °F /  5.2 °C 35.6 °F /  2 °C 30.43in /  1030.4hPa WSW 3.0mph /  4.8km/h 6.0mph /  9.7km/h 80% 0.00in /  0mm
22:09 41.4 °F /  5.2 °C 35.7 °F /  2.1 °C 30.43in /  1030.4hPa WSW 3.0mph /  4.8km/h 7.0mph /  11.3km/h 80% 0.00in /  0mm
22:14 41.4 °F /  5.2 °C 35.7 °F /  2.1 °C 30.43in /  1030.4hPa WSW 3.0mph /  4.8km/h 7.0mph /  11.3km/h 80% 0.00in /  0mm
22:19 41.4 °F /  5.2 °C 35.4 °F /  1.9 °C 30.44in /  1030.7hPa WSW 3.0mph /  4.8km/h 4.0mph /  6.4km/h 79% 0.00in /  0mm
22:24 41.3 °F /  5.2 °C 35.3 °F /  1.8 °C 30.44in /  1030.7hPa West 3.0mph /  4.8km/h 7.0mph /  11.3km/h 79% 0.00in /  0mm
22:29 41.3 °F /  5.2 °C 35.3 °F /  1.8 °C 30.44in /  1030.7hPa West 2.0mph /  3.2km/h 6.0mph /  9.7km/h 79% 0.00in /  0mm
22:34 41.2 °F /  5.1 °C 35.2 °F /  1.8 °C 30.43in /  1030.4hPa West 3.0mph /  4.8km/h 7.0mph /  11.3km/h 79% 0.00in /  0mm
22:39 41.2 °F /  5.1 °C 35.2 °F /  1.8 °C 30.43in /  1030.4hPa WSW 2.0mph /  3.2km/h 7.0mph /  11.3km/h 79% 0.00in /  0mm
22:44 41.1 °F /  5.1 °C 35.1 °F /  1.7 °C 30.44in /  1030.7hPa WSW 2.0mph /  3.2km/h 5.0mph /  8km/h 79% 0.00in /  0mm
22:49 41.1 °F /  5.1 °C 35.1 °F /  1.7 °C 30.44in /  1030.7hPa WSW 2.0mph /  3.2km/h 7.0mph /  11.3km/h 79% 0.00in /  0mm
22:54 41.0 °F /  5 °C 35.0 °F /  1.7 °C 30.44in /  1030.7hPa WSW 2.0mph /  3.2km/h 6.0mph /  9.7km/h 79% 0.00in /  0mm
22:59 40.9 °F /  4.9 °C 34.9 °F /  1.6 °C 30.44in /  1030.7hPa WSW 2.0mph /  3.2km/h 4.0mph /  6.4km/h 79% 0.00in /  0mm
23:04 40.8 °F /  4.9 °C 34.8 °F /  1.6 °C 30.43in /  1030.4hPa WSW 1.0mph /  1.6km/h 5.0mph /  8km/h 79% 0.00in /  0mm
23:09 40.5 °F /  4.7 °C 34.5 °F /  1.4 °C 30.43in /  1030.4hPa WSW 2.0mph /  3.2km/h 5.0mph /  8km/h 79% 0.00in /  0mm
23:14 40.4 °F /  4.7 °C 34.7 °F /  1.5 °C 30.44in /  1030.7hPa WSW 2.0mph /  3.2km/h 5.0mph /  8km/h 80% 0.00in /  0mm
23:19 40.5 °F /  4.7 °C 34.8 °F /  1.6 °C 30.43in /  1030.4hPa WSW 3.0mph /  4.8km/h 5.0mph /  8km/h 80% 0.00in /  0mm
23:24 40.3 °F /  4.6 °C 34.6 °F /  1.4 °C 30.44in /  1030.7hPa West 2.0mph /  3.2km/h 5.0mph /  8km/h 80% 0.00in /  0mm
23:29 40.1 °F /  4.5 °C 34.4 °F /  1.3 °C 30.44in /  1030.7hPa West 2.0mph /  3.2km/h 4.0mph /  6.4km/h 80% 0.00in /  0mm
23:34 39.8 °F /  4.3 °C 34.4 °F /  1.3 °C 30.44in /  1030.7hPa West 4.0mph /  6.4km/h 4.0mph /  6.4km/h 81% 0.00in /  0mm
23:39 39.5 °F /  4.2 °C 34.2 °F /  1.2 °C 30.44in /  1030.7hPa West 2.0mph /  3.2km/h 4.0mph /  6.4km/h 81% 0.00in /  0mm
23:44 39.2 °F /  4 °C 33.9 °F /  1.1 °C 30.44in /  1030.7hPa West 1.0mph /  1.6km/h 4.0mph /  6.4km/h 81% 0.00in /  0mm
23:49 38.6 °F /  3.7 °C 33.6 °F /  0.9 °C 30.44in /  1030.7hPa West 1.0mph /  1.6km/h 2.0mph /  3.2km/h 82% 0.00in /  0mm
23:54 38.4 °F /  3.6 °C 33.4 °F /  0.8 °C 30.44in /  1030.7hPa Calm   1.0mph /  1.6km/h 82% 0.00in /  0mm
23:59 38.3 °F /  3.5 °C 33.3 °F /  0.7 °C 30.44in /  1030.7hPa West 3.0mph /  4.8km/h 3.0mph /  4.8km/h 82% 0.00in /  0mm
Buffalo, New York, USA
Compliments of Weather Underground - 2.5 mb